sensor_id;sensor_type;location;lat;lon;timestamp;temperature;humidity
21193;DHT22;10754;51.106;7.164;2022-12-29T00:01:30;13.40;1.00
21193;DHT22;10754;51.106;7.164;2022-12-29T00:03:56;13.40;1.00
21193;DHT22;10754;51.106;7.164;2022-12-29T00:06:21;13.30;1.00
21193;DHT22;10754;51.106;7.164;2022-12-29T00:08:47;13.30;1.00
21193;DHT22;10754;51.106;7.164;2022-12-29T00:11:18;13.20;1.00
21193;DHT22;10754;51.106;7.164;2022-12-29T00:13:44;13.30;1.00
21193;DHT22;10754;51.106;7.164;2022-12-29T00:16:31;13.40;1.00
21193;DHT22;10754;51.106;7.164;2022-12-29T00:18:57;13.30;1.00
21193;DHT22;10754;51.106;7.164;2022-12-29T00:21:24;13.40;1.00
21193;DHT22;10754;51.106;7.164;2022-12-29T00:24:15;13.50;1.00
21193;DHT22;10754;51.106;7.164;2022-12-29T00:27:10;13.30;1.00
21193;DHT22;10754;51.106;7.164;2022-12-29T00:29:55;13.20;1.00
21193;DHT22;10754;51.106;7.164;2022-12-29T00:32:39;13.20;1.00
21193;DHT22;10754;51.106;7.164;2022-12-29T00:35:33;13.40;1.00
21193;DHT22;10754;51.106;7.164;2022-12-29T00:38:03;13.50;1.00
21193;DHT22;10754;51.106;7.164;2022-12-29T00:40:48;13.40;1.00
21193;DHT22;10754;51.106;7.164;2022-12-29T00:43:33;13.50;1.00
21193;DHT22;10754;51.106;7.164;2022-12-29T00:46:17;13.50;1.00
21193;DHT22;10754;51.106;7.164;2022-12-29T00:48:42;13.30;1.00
21193;DHT22;10754;51.106;7.164;2022-12-29T00:51:27;13.40;1.00
21193;DHT22;10754;51.106;7.164;2022-12-29T00:53:52;13.50;1.00
21193;DHT22;10754;51.106;7.164;2022-12-29T00:56:18;13.50;1.00
21193;DHT22;10754;51.106;7.164;2022-12-29T00:58:43;13.30;1.00
21193;DHT22;10754;51.106;7.164;2022-12-29T01:01:09;13.50;1.00
21193;DHT22;10754;51.106;7.164;2022-12-29T01:03:36;13.60;1.00
21193;DHT22;10754;51.106;7.164;2022-12-29T01:06:04;13.50;1.00
21193;DHT22;10754;51.106;7.164;2022-12-29T01:08:30;13.80;1.00
21193;DHT22;10754;51.106;7.164;2022-12-29T01:11:05;13.70;1.00
21193;DHT22;10754;51.106;7.164;2022-12-29T01:13:31;13.50;1.00
21193;DHT22;10754;51.106;7.164;2022-12-29T01:15:57;13.50;1.00
21193;DHT22;10754;51.106;7.164;2022-12-29T01:18:23;13.60;1.00
21193;DHT22;10754;51.106;7.164;2022-12-29T01:20:49;13.60;1.00
21193;DHT22;10754;51.106;7.164;2022-12-29T01:23:15;13.60;1.00
21193;DHT22;10754;51.106;7.164;2022-12-29T01:25:41;13.60;1.00
21193;DHT22;10754;51.106;7.164;2022-12-29T01:28:07;13.60;1.00
21193;DHT22;10754;51.106;7.164;2022-12-29T01:30:34;13.40;1.00
21193;DHT22;10754;51.106;7.164;2022-12-29T01:32:59;13.20;1.00
21193;DHT22;10754;51.106;7.164;2022-12-29T01:35:25;13.00;1.00
21193;DHT22;10754;51.106;7.164;2022-12-29T01:37:50;13.10;1.00
21193;DHT22;10754;51.106;7.164;2022-12-29T01:40:16;13.10;1.00
21193;DHT22;10754;51.106;7.164;2022-12-29T01:42:41;13.20;1.00
21193;DHT22;10754;51.106;7.164;2022-12-29T01:45:12;12.90;1.00
21193;DHT22;10754;51.106;7.164;2022-12-29T01:47:52;13.10;1.00
21193;DHT22;10754;51.106;7.164;2022-12-29T01:50:24;13.00;1.00
21193;DHT22;10754;51.106;7.164;2022-12-29T01:52:56;13.00;1.00
21193;DHT22;10754;51.106;7.164;2022-12-29T01:55:24;12.80;1.00
21193;DHT22;10754;51.106;7.164;2022-12-29T01:57:53;12.80;1.00
21193;DHT22;10754;51.106;7.164;2022-12-29T02:00:20;13.10;1.00
21193;DHT22;10754;51.106;7.164;2022-12-29T02:02:51;13.20;1.00
21193;DHT22;10754;51.106;7.164;2022-12-29T02:05:25;13.50;1.00
21193;DHT22;10754;51.106;7.164;2022-12-29T02:07:53;13.60;1.00
21193;DHT22;10754;51.106;7.164;2022-12-29T02:10:24;13.50;1.00
21193;DHT22;10754;51.106;7.164;2022-12-29T02:12:51;13.90;1.00
21193;DHT22;10754;51.106;7.164;2022-12-29T02:15:18;13.70;1.00
21193;DHT22;10754;51.106;7.164;2022-12-29T02:18:32;13.40;1.00
21193;DHT22;10754;51.106;7.164;2022-12-29T02:21:25;13.40;1.00
21193;DHT22;10754;51.106;7.164;2022-12-29T02:24:05;13.40;1.00
21193;DHT22;10754;51.106;7.164;2022-12-29T02:26:47;13.30;1.00
21193;DHT22;10754;51.106;7.164;2022-12-29T02:29:43;13.60;1.00
21193;DHT22;10754;51.106;7.164;2022-12-29T02:35:29;13.80;1.00
21193;DHT22;10754;51.106;7.164;2022-12-29T02:41:25;13.40;1.00
21193;DHT22;10754;51.106;7.164;2022-12-29T02:44:36;13.30;1.00
21193;DHT22;10754;51.106;7.164;2022-12-29T02:49:38;13.80;1.00
21193;DHT22;10754;51.106;7.164;2022-12-29T02:52:17;14.00;1.00
21193;DHT22;10754;51.106;7.164;2022-12-29T02:54:44;13.90;1.00
21193;DHT22;10754;51.106;7.164;2022-12-29T03:05:13;13.70;1.00
21193;DHT22;10754;51.106;7.164;2022-12-29T03:08:23;13.70;1.00
21193;DHT22;10754;51.106;7.164;2022-12-29T03:10:59;14.10;1.00
21193;DHT22;10754;51.106;7.164;2022-12-29T03:13:49;13.90;1.00
21193;DHT22;10754;51.106;7.164;2022-12-29T03:16:44;14.10;1.00
21193;DHT22;10754;51.106;7.164;2022-12-29T03:19:21;14.30;1.00
21193;DHT22;10754;51.106;7.164;2022-12-29T03:22:01;14.40;1.00
21193;DHT22;10754;51.106;7.164;2022-12-29T03:24:49;14.60;1.00
21193;DHT22;10754;51.106;7.164;2022-12-29T03:27:25;14.20;1.00
21193;DHT22;10754;51.106;7.164;2022-12-29T03:29:56;14.30;1.00
21193;DHT22;10754;51.106;7.164;2022-12-29T03:32:26;14.30;1.00
21193;DHT22;10754;51.106;7.164;2022-12-29T03:34:53;14.30;1.00
21193;DHT22;10754;51.106;7.164;2022-12-29T03:37:23;14.50;1.00
21193;DHT22;10754;51.106;7.164;2022-12-29T03:39:50;14.30;1.00
21193;DHT22;10754;51.106;7.164;2022-12-29T03:42:19;14.20;1.00
21193;DHT22;10754;51.106;7.164;2022-12-29T03:44:46;14.40;1.00
21193;DHT22;10754;51.106;7.164;2022-12-29T03:47:13;14.20;1.00
21193;DHT22;10754;51.106;7.164;2022-12-29T03:49:39;14.20;1.00
21193;DHT22;10754;51.106;7.164;2022-12-29T03:52:05;14.40;1.00
21193;DHT22;10754;51.106;7.164;2022-12-29T03:54:31;14.20;1.00
21193;DHT22;10754;51.106;7.164;2022-12-29T03:56:57;14.30;1.00
21193;DHT22;10754;51.106;7.164;2022-12-29T03:59:22;14.40;1.00
21193;DHT22;10754;51.106;7.164;2022-12-29T04:01:48;14.40;1.00
21193;DHT22;10754;51.106;7.164;2022-12-29T04:04:13;14.40;1.00
21193;DHT22;10754;51.106;7.164;2022-12-29T04:06:39;14.40;1.00
21193;DHT22;10754;51.106;7.164;2022-12-29T04:09:05;14.40;1.00
21193;DHT22;10754;51.106;7.164;2022-12-29T04:11:30;14.50;1.00
21193;DHT22;10754;51.106;7.164;2022-12-29T04:13:56;14.60;1.00
21193;DHT22;10754;51.106;7.164;2022-12-29T04:16:21;14.40;1.00
21193;DHT22;10754;51.106;7.164;2022-12-29T04:18:47;14.10;1.00
21193;DHT22;10754;51.106;7.164;2022-12-29T04:21:12;14.20;1.00
21193;DHT22;10754;51.106;7.164;2022-12-29T04:23:38;14.20;1.00
21193;DHT22;10754;51.106;7.164;2022-12-29T04:26:05;14.50;1.00
21193;DHT22;10754;51.106;7.164;2022-12-29T04:28:35;14.50;1.00
21193;DHT22;10754;51.106;7.164;2022-12-29T04:31:02;14.50;1.00
21193;DHT22;10754;51.106;7.164;2022-12-29T04:33:27;14.60;1.00
21193;DHT22;10754;51.106;7.164;2022-12-29T04:35:53;14.50;1.00
21193;DHT22;10754;51.106;7.164;2022-12-29T04:38:20;14.60;1.00
21193;DHT22;10754;51.106;7.164;2022-12-29T04:40:45;14.40;1.00
21193;DHT22;10754;51.106;7.164;2022-12-29T04:43:12;14.40;1.00
21193;DHT22;10754;51.106;7.164;2022-12-29T04:45:42;14.20;1.00
21193;DHT22;10754;51.106;7.164;2022-12-29T04:48:08;14.20;1.00
21193;DHT22;10754;51.106;7.164;2022-12-29T04:50:34;14.10;1.00
21193;DHT22;10754;51.106;7.164;2022-12-29T04:53:00;14.00;1.00
21193;DHT22;10754;51.106;7.164;2022-12-29T04:55:25;14.10;1.00
21193;DHT22;10754;51.106;7.164;2022-12-29T04:57:51;14.10;1.00
21193;DHT22;10754;51.106;7.164;2022-12-29T05:00:16;14.10;1.00
21193;DHT22;10754;51.106;7.164;2022-12-29T05:02:42;14.30;1.00
21193;DHT22;10754;51.106;7.164;2022-12-29T05:05:08;14.50;1.00
21193;DHT22;10754;51.106;7.164;2022-12-29T05:07:33;14.70;1.00
21193;DHT22;10754;51.106;7.164;2022-12-29T05:09:59;14.30;1.00
21193;DHT22;10754;51.106;7.164;2022-12-29T05:12:25;14.50;1.00
21193;DHT22;10754;51.106;7.164;2022-12-29T05:14:50;14.60;1.00
21193;DHT22;10754;51.106;7.164;2022-12-29T05:17:16;14.40;1.00
21193;DHT22;10754;51.106;7.164;2022-12-29T05:19:41;14.30;1.00
21193;DHT22;10754;51.106;7.164;2022-12-29T05:22:07;14.20;1.00
21193;DHT22;10754;51.106;7.164;2022-12-29T05:24:32;14.40;1.00
21193;DHT22;10754;51.106;7.164;2022-12-29T05:26:58;14.50;1.00
21193;DHT22;10754;51.106;7.164;2022-12-29T05:29:23;14.30;1.00
21193;DHT22;10754;51.106;7.164;2022-12-29T05:31:49;14.50;1.00
21193;DHT22;10754;51.106;7.164;2022-12-29T05:34:14;14.50;1.00
21193;DHT22;10754;51.106;7.164;2022-12-29T05:36:40;14.30;1.00
21193;DHT22;10754;51.106;7.164;2022-12-29T05:39:05;14.20;1.00
21193;DHT22;10754;51.106;7.164;2022-12-29T05:41:33;14.20;1.00
21193;DHT22;10754;51.106;7.164;2022-12-29T05:43:59;14.40;1.00
21193;DHT22;10754;51.106;7.164;2022-12-29T05:46:24;14.00;1.00
21193;DHT22;10754;51.106;7.164;2022-12-29T05:48:50;14.00;1.00
21193;DHT22;10754;51.106;7.164;2022-12-29T05:51:15;14.20;1.00
21193;DHT22;10754;51.106;7.164;2022-12-29T05:53:41;14.20;1.00
21193;DHT22;10754;51.106;7.164;2022-12-29T05:56:06;14.00;1.00
21193;DHT22;10754;51.106;7.164;2022-12-29T05:58:36;14.20;1.00
21193;DHT22;10754;51.106;7.164;2022-12-29T06:01:01;14.10;1.00
21193;DHT22;10754;51.106;7.164;2022-12-29T06:03:27;13.90;1.00
21193;DHT22;10754;51.106;7.164;2022-12-29T06:05:52;13.70;1.00
21193;DHT22;10754;51.106;7.164;2022-12-29T06:08:18;14.00;1.00
21193;DHT22;10754;51.106;7.164;2022-12-29T06:10:43;14.20;1.00
21193;DHT22;10754;51.106;7.164;2022-12-29T06:13:09;14.00;1.00
21193;DHT22;10754;51.106;7.164;2022-12-29T06:15:35;14.10;1.00
21193;DHT22;10754;51.106;7.164;2022-12-29T06:18:01;14.10;1.00
21193;DHT22;10754;51.106;7.164;2022-12-29T06:20:26;14.30;1.00
21193;DHT22;10754;51.106;7.164;2022-12-29T06:22:52;14.30;1.00
21193;DHT22;10754;51.106;7.164;2022-12-29T06:25:18;14.70;1.00
21193;DHT22;10754;51.106;7.164;2022-12-29T06:27:43;14.20;1.00
21193;DHT22;10754;51.106;7.164;2022-12-29T06:30:09;14.20;1.00
21193;DHT22;10754;51.106;7.164;2022-12-29T06:32:35;14.30;1.00
21193;DHT22;10754;51.106;7.164;2022-12-29T06:35:02;14.00;1.00
21193;DHT22;10754;51.106;7.164;2022-12-29T06:37:27;14.10;1.00
21193;DHT22;10754;51.106;7.164;2022-12-29T06:39:53;14.00;1.00
21193;DHT22;10754;51.106;7.164;2022-12-29T06:42:18;14.30;1.00
21193;DHT22;10754;51.106;7.164;2022-12-29T06:44:44;14.10;1.00
21193;DHT22;10754;51.106;7.164;2022-12-29T06:47:10;14.00;1.00
21193;DHT22;10754;51.106;7.164;2022-12-29T06:49:35;13.90;1.00
21193;DHT22;10754;51.106;7.164;2022-12-29T06:52:01;13.90;1.00
21193;DHT22;10754;51.106;7.164;2022-12-29T06:54:29;14.00;1.00
21193;DHT22;10754;51.106;7.164;2022-12-29T06:56:55;14.20;1.00
21193;DHT22;10754;51.106;7.164;2022-12-29T06:59:20;13.90;1.00
21193;DHT22;10754;51.106;7.164;2022-12-29T07:01:46;13.70;1.00
21193;DHT22;10754;51.106;7.164;2022-12-29T07:04:11;13.40;1.00
21193;DHT22;10754;51.106;7.164;2022-12-29T07:06:37;13.40;1.00
21193;DHT22;10754;51.106;7.164;2022-12-29T07:09:03;13.90;1.00
21193;DHT22;10754;51.106;7.164;2022-12-29T07:11:28;13.80;1.00
21193;DHT22;10754;51.106;7.164;2022-12-29T07:13:54;13.60;1.00
21193;DHT22;10754;51.106;7.164;2022-12-29T07:16:19;13.60;1.00
21193;DHT22;10754;51.106;7.164;2022-12-29T07:18:45;13.90;1.00
21193;DHT22;10754;51.106;7.164;2022-12-29T07:21:12;13.90;1.00
21193;DHT22;10754;51.106;7.164;2022-12-29T07:23:37;14.10;1.00
21193;DHT22;10754;51.106;7.164;2022-12-29T07:26:05;13.80;1.00
21193;DHT22;10754;51.106;7.164;2022-12-29T07:28:32;14.10;1.00
21193;DHT22;10754;51.106;7.164;2022-12-29T07:30:58;14.50;1.00
21193;DHT22;10754;51.106;7.164;2022-12-29T07:33:24;14.30;1.00
21193;DHT22;10754;51.106;7.164;2022-12-29T07:35:50;14.60;1.00
21193;DHT22;10754;51.106;7.164;2022-12-29T07:38:16;14.20;1.00
21193;DHT22;10754;51.106;7.164;2022-12-29T07:40:42;14.20;1.00
21193;DHT22;10754;51.106;7.164;2022-12-29T07:43:08;14.20;1.00
21193;DHT22;10754;51.106;7.164;2022-12-29T07:45:34;14.10;1.00
21193;DHT22;10754;51.106;7.164;2022-12-29T07:47:59;13.90;1.00
21193;DHT22;10754;51.106;7.164;2022-12-29T07:50:25;13.70;1.00
21193;DHT22;10754;51.106;7.164;2022-12-29T07:52:50;14.60;1.00
21193;DHT22;10754;51.106;7.164;2022-12-29T07:55:16;14.60;1.00
21193;DHT22;10754;51.106;7.164;2022-12-29T07:57:42;14.30;1.00
21193;DHT22;10754;51.106;7.164;2022-12-29T08:00:08;14.30;1.00
21193;DHT22;10754;51.106;7.164;2022-12-29T08:02:35;14.20;1.00
21193;DHT22;10754;51.106;7.164;2022-12-29T08:05:00;14.40;1.00
21193;DHT22;10754;51.106;7.164;2022-12-29T08:07:26;14.60;1.00
21193;DHT22;10754;51.106;7.164;2022-12-29T08:09:51;14.50;1.00
21193;DHT22;10754;51.106;7.164;2022-12-29T08:12:17;14.30;1.00
21193;DHT22;10754;51.106;7.164;2022-12-29T08:14:43;14.30;1.00
21193;DHT22;10754;51.106;7.164;2022-12-29T08:17:09;14.60;1.00
21193;DHT22;10754;51.106;7.164;2022-12-29T08:19:35;14.30;1.00
21193;DHT22;10754;51.106;7.164;2022-12-29T08:22:01;14.20;1.00
21193;DHT22;10754;51.106;7.164;2022-12-29T08:24:26;14.60;1.00
21193;DHT22;10754;51.106;7.164;2022-12-29T08:26:52;14.60;1.00
21193;DHT22;10754;51.106;7.164;2022-12-29T08:29:18;14.50;1.00
21193;DHT22;10754;51.106;7.164;2022-12-29T08:31:43;14.30;1.00
21193;DHT22;10754;51.106;7.164;2022-12-29T08:34:09;14.40;1.00
21193;DHT22;10754;51.106;7.164;2022-12-29T08:36:34;14.70;1.00
21193;DHT22;10754;51.106;7.164;2022-12-29T08:39:00;14.30;1.00
21193;DHT22;10754;51.106;7.164;2022-12-29T08:41:25;14.30;1.00
21193;DHT22;10754;51.106;7.164;2022-12-29T08:43:51;14.50;1.00
21193;DHT22;10754;51.106;7.164;2022-12-29T08:46:17;14.50;1.00
21193;DHT22;10754;51.106;7.164;2022-12-29T08:48:42;14.50;1.00
21193;DHT22;10754;51.106;7.164;2022-12-29T08:51:08;14.40;1.00
21193;DHT22;10754;51.106;7.164;2022-12-29T08:53:34;14.00;1.00
21193;DHT22;10754;51.106;7.164;2022-12-29T08:56:00;14.10;1.00
21193;DHT22;10754;51.106;7.164;2022-12-29T08:58:26;14.40;1.00
21193;DHT22;10754;51.106;7.164;2022-12-29T09:00:56;14.40;1.00
21193;DHT22;10754;51.106;7.164;2022-12-29T09:03:25;13.90;1.00
21193;DHT22;10754;51.106;7.164;2022-12-29T09:05:52;14.20;1.00
21193;DHT22;10754;51.106;7.164;2022-12-29T09:08:18;14.00;1.00
21193;DHT22;10754;51.106;7.164;2022-12-29T09:10:44;14.10;1.00
21193;DHT22;10754;51.106;7.164;2022-12-29T09:13:11;13.90;1.00
21193;DHT22;10754;51.106;7.164;2022-12-29T09:15:37;14.30;1.00
21193;DHT22;10754;51.106;7.164;2022-12-29T09:18:03;14.40;1.00
21193;DHT22;10754;51.106;7.164;2022-12-29T09:20:28;14.00;1.00
21193;DHT22;10754;51.106;7.164;2022-12-29T09:22:54;14.20;1.00
21193;DHT22;10754;51.106;7.164;2022-12-29T09:25:20;14.60;1.00
21193;DHT22;10754;51.106;7.164;2022-12-29T09:27:46;14.60;1.00
21193;DHT22;10754;51.106;7.164;2022-12-29T09:30:13;14.50;1.00
21193;DHT22;10754;51.106;7.164;2022-12-29T09:32:39;14.70;1.00
21193;DHT22;10754;51.106;7.164;2022-12-29T09:35:06;14.80;1.00
21193;DHT22;10754;51.106;7.164;2022-12-29T09:37:32;14.60;1.00
21193;DHT22;10754;51.106;7.164;2022-12-29T09:39:57;14.70;1.00
21193;DHT22;10754;51.106;7.164;2022-12-29T09:42:41;14.50;1.00
21193;DHT22;10754;51.106;7.164;2022-12-29T09:45:18;14.40;1.00
21193;DHT22;10754;51.106;7.164;2022-12-29T09:47:46;14.50;1.00
21193;DHT22;10754;51.106;7.164;2022-12-29T09:50:23;14.30;1.00
21193;DHT22;10754;51.106;7.164;2022-12-29T09:55:39;14.60;1.00
21193;DHT22;10754;51.106;7.164;2022-12-29T09:58:13;14.50;1.00
21193;DHT22;10754;51.106;7.164;2022-12-29T10:01:00;14.70;1.00
21193;DHT22;10754;51.106;7.164;2022-12-29T10:03:36;14.80;1.00
21193;DHT22;10754;51.106;7.164;2022-12-29T10:06:12;14.70;1.00
21193;DHT22;10754;51.106;7.164;2022-12-29T10:08:47;14.60;1.00
21193;DHT22;10754;51.106;7.164;2022-12-29T10:16:55;14.80;1.00
21193;DHT22;10754;51.106;7.164;2022-12-29T10:19:46;14.80;1.00
21193;DHT22;10754;51.106;7.164;2022-12-29T10:22:45;14.70;1.00
21193;DHT22;10754;51.106;7.164;2022-12-29T10:25:15;14.90;1.00
21193;DHT22;10754;51.106;7.164;2022-12-29T10:27:42;15.00;1.00
21193;DHT22;10754;51.106;7.164;2022-12-29T10:30:12;15.00;1.00
21193;DHT22;10754;51.106;7.164;2022-12-29T10:32:48;14.70;1.00
21193;DHT22;10754;51.106;7.164;2022-12-29T10:35:22;14.60;1.00
21193;DHT22;10754;51.106;7.164;2022-12-29T10:40:36;14.80;1.00
21193;DHT22;10754;51.106;7.164;2022-12-29T10:43:20;14.70;1.00
21193;DHT22;10754;51.106;7.164;2022-12-29T10:45:47;15.40;1.00
21193;DHT22;10754;51.106;7.164;2022-12-29T10:48:20;15.10;1.00
21193;DHT22;10754;51.106;7.164;2022-12-29T10:50:48;15.20;1.00
21193;DHT22;10754;51.106;7.164;2022-12-29T10:53:21;15.10;1.00
21193;DHT22;10754;51.106;7.164;2022-12-29T10:55:48;14.90;1.00
21193;DHT22;10754;51.106;7.164;2022-12-29T10:58:14;14.70;1.00
21193;DHT22;10754;51.106;7.164;2022-12-29T11:00:41;14.70;1.00
21193;DHT22;10754;51.106;7.164;2022-12-29T11:06:14;14.90;1.00
21193;DHT22;10754;51.106;7.164;2022-12-29T11:08:58;15.10;1.00
21193;DHT22;10754;51.106;7.164;2022-12-29T11:11:34;14.80;1.00
21193;DHT22;10754;51.106;7.164;2022-12-29T11:14:20;15.00;1.00
21193;DHT22;10754;51.106;7.164;2022-12-29T11:17:00;15.10;1.00
21193;DHT22;10754;51.106;7.164;2022-12-29T11:19:31;14.80;1.00
21193;DHT22;10754;51.106;7.164;2022-12-29T11:22:20;14.90;1.00
21193;DHT22;10754;51.106;7.164;2022-12-29T11:24:48;14.70;1.00
21193;DHT22;10754;51.106;7.164;2022-12-29T11:27:17;14.80;1.00
21193;DHT22;10754;51.106;7.164;2022-12-29T11:29:44;14.40;1.00
21193;DHT22;10754;51.106;7.164;2022-12-29T11:32:28;14.10;1.00
21193;DHT22;10754;51.106;7.164;2022-12-29T11:34:58;14.50;1.00
21193;DHT22;10754;51.106;7.164;2022-12-29T11:40:02;14.90;1.00
21193;DHT22;10754;51.106;7.164;2022-12-29T11:42:48;14.80;1.00
21193;DHT22;10754;51.106;7.164;2022-12-29T11:45:22;15.00;1.00
21193;DHT22;10754;51.106;7.164;2022-12-29T11:47:51;14.80;1.00
21193;DHT22;10754;51.106;7.164;2022-12-29T11:50:20;14.40;1.00
21193;DHT22;10754;51.106;7.164;2022-12-29T11:52:48;14.40;1.00
21193;DHT22;10754;51.106;7.164;2022-12-29T11:55:20;14.20;1.00
21193;DHT22;10754;51.106;7.164;2022-12-29T11:57:47;14.30;1.00
21193;DHT22;10754;51.106;7.164;2022-12-29T12:00:20;14.60;1.00
21193;DHT22;10754;51.106;7.164;2022-12-29T12:03:10;14.60;1.00
21193;DHT22;10754;51.106;7.164;2022-12-29T12:05:48;14.60;1.00
21193;DHT22;10754;51.106;7.164;2022-12-29T12:08:38;14.60;1.00
21193;DHT22;10754;51.106;7.164;2022-12-29T12:14:21;14.40;1.00
21193;DHT22;10754;51.106;7.164;2022-12-29T12:16:54;14.30;1.00
21193;DHT22;10754;51.106;7.164;2022-12-29T12:21:59;14.00;1.00
21193;DHT22;10754;51.106;7.164;2022-12-29T12:24:55;14.40;1.00
21193;DHT22;10754;51.106;7.164;2022-12-29T12:27:36;14.00;1.00
21193;DHT22;10754;51.106;7.164;2022-12-29T12:30:13;14.40;1.00
21193;DHT22;10754;51.106;7.164;2022-12-29T12:35:13;14.30;1.00
21193;DHT22;10754;51.106;7.164;2022-12-29T12:40:39;14.10;1.00
21193;DHT22;10754;51.106;7.164;2022-12-29T12:54:30;14.10;1.00
21193;DHT22;10754;51.106;7.164;2022-12-29T13:00:04;13.90;1.00
21193;DHT22;10754;51.106;7.164;2022-12-29T13:05:53;14.70;1.00
21193;DHT22;10754;51.106;7.164;2022-12-29T13:08:42;14.80;1.00
21193;DHT22;10754;51.106;7.164;2022-12-29T13:16:41;14.50;1.00
21193;DHT22;10754;51.106;7.164;2022-12-29T13:19:31;14.00;1.00
21193;DHT22;10754;51.106;7.164;2022-12-29T13:22:22;14.10;1.00
21193;DHT22;10754;51.106;7.164;2022-12-29T13:25:12;14.30;1.00
21193;DHT22;10754;51.106;7.164;2022-12-29T13:27:49;14.10;1.00
21193;DHT22;10754;51.106;7.164;2022-12-29T13:31:04;14.40;1.00
21193;DHT22;10754;51.106;7.164;2022-12-29T13:33:24;14.10;1.00
21193;DHT22;10754;51.106;7.164;2022-12-29T13:35:57;13.90;1.00
21193;DHT22;10754;51.106;7.164;2022-12-29T13:38:38;13.80;1.00
21193;DHT22;10754;51.106;7.164;2022-12-29T13:41:30;14.00;1.00
21193;DHT22;10754;51.106;7.164;2022-12-29T13:43:58;14.30;1.00
21193;DHT22;10754;51.106;7.164;2022-12-29T13:46:29;14.00;1.00
21193;DHT22;10754;51.106;7.164;2022-12-29T13:49:17;13.80;1.00
21193;DHT22;10754;51.106;7.164;2022-12-29T13:51:52;13.80;1.00
21193;DHT22;10754;51.106;7.164;2022-12-29T14:07:49;14.00;1.00
21193;DHT22;10754;51.106;7.164;2022-12-29T14:10:34;14.00;1.00
21193;DHT22;10754;51.106;7.164;2022-12-29T14:15:39;14.00;1.00
21193;DHT22;10754;51.106;7.164;2022-12-29T14:20:36;14.30;1.00
21193;DHT22;10754;51.106;7.164;2022-12-29T14:28:24;14.20;1.00
21193;DHT22;10754;51.106;7.164;2022-12-29T14:30:56;13.60;1.00
21193;DHT22;10754;51.106;7.164;2022-12-29T14:33:22;13.60;1.00
21193;DHT22;10754;51.106;7.164;2022-12-29T14:35:51;13.80;1.00
21193;DHT22;10754;51.106;7.164;2022-12-29T14:38:28;13.70;1.00
21193;DHT22;10754;51.106;7.164;2022-12-29T14:41:16;13.90;1.00
21193;DHT22;10754;51.106;7.164;2022-12-29T14:43:56;13.70;1.00
21193;DHT22;10754;51.106;7.164;2022-12-29T14:46:22;13.90;1.00
21193;DHT22;10754;51.106;7.164;2022-12-29T14:48:55;13.70;1.00
21193;DHT22;10754;51.106;7.164;2022-12-29T14:51:31;13.90;1.00
21193;DHT22;10754;51.106;7.164;2022-12-29T14:53:57;14.10;1.00
21193;DHT22;10754;51.106;7.164;2022-12-29T14:56:28;13.60;1.00
21193;DHT22;10754;51.106;7.164;2022-12-29T14:59:01;13.60;1.00
21193;DHT22;10754;51.106;7.164;2022-12-29T15:01:39;13.80;1.00
21193;DHT22;10754;51.106;7.164;2022-12-29T15:04:21;13.60;1.00
21193;DHT22;10754;51.106;7.164;2022-12-29T15:06:49;13.90;1.00
21193;DHT22;10754;51.106;7.164;2022-12-29T15:09:30;13.60;1.00
21193;DHT22;10754;51.106;7.164;2022-12-29T15:12:15;13.30;1.00
21193;DHT22;10754;51.106;7.164;2022-12-29T15:14:50;13.40;1.00
21193;DHT22;10754;51.106;7.164;2022-12-29T15:17:26;13.90;1.00
21193;DHT22;10754;51.106;7.164;2022-12-29T15:19:53;14.00;1.00
21193;DHT22;10754;51.106;7.164;2022-12-29T15:22:19;13.90;1.00
21193;DHT22;10754;51.106;7.164;2022-12-29T15:24:45;13.90;1.00
21193;DHT22;10754;51.106;7.164;2022-12-29T15:27:14;14.10;1.00
21193;DHT22;10754;51.106;7.164;2022-12-29T15:29:43;14.20;1.00
21193;DHT22;10754;51.106;7.164;2022-12-29T15:34:45;13.80;1.00
21193;DHT22;10754;51.106;7.164;2022-12-29T15:37:18;14.10;1.00
21193;DHT22;10754;51.106;7.164;2022-12-29T15:39:44;13.60;1.00
21193;DHT22;10754;51.106;7.164;2022-12-29T15:42:25;13.60;1.00
21193;DHT22;10754;51.106;7.164;2022-12-29T15:44:52;13.40;1.00
21193;DHT22;10754;51.106;7.164;2022-12-29T15:47:23;13.50;1.00
21193;DHT22;10754;51.106;7.164;2022-12-29T15:49:52;13.60;1.00
21193;DHT22;10754;51.106;7.164;2022-12-29T15:52:20;13.50;1.00
21193;DHT22;10754;51.106;7.164;2022-12-29T15:54:50;13.80;1.00
21193;DHT22;10754;51.106;7.164;2022-12-29T15:57:22;13.90;1.00
21193;DHT22;10754;51.106;7.164;2022-12-29T15:59:48;14.20;1.00
21193;DHT22;10754;51.106;7.164;2022-12-29T16:02:14;13.90;1.00
21193;DHT22;10754;51.106;7.164;2022-12-29T16:04:40;14.00;1.00
21193;DHT22;10754;51.106;7.164;2022-12-29T16:07:30;13.80;1.00
21193;DHT22;10754;51.106;7.164;2022-12-29T16:10:00;13.70;1.00
21193;DHT22;10754;51.106;7.164;2022-12-29T16:12:35;13.70;1.00
21193;DHT22;10754;51.106;7.164;2022-12-29T16:15:12;13.90;1.00
21193;DHT22;10754;51.106;7.164;2022-12-29T16:17:50;13.50;1.00
21193;DHT22;10754;51.106;7.164;2022-12-29T16:20:20;13.30;1.00
21193;DHT22;10754;51.106;7.164;2022-12-29T16:22:52;13.30;1.00
21193;DHT22;10754;51.106;7.164;2022-12-29T16:25:23;13.00;1.00
21193;DHT22;10754;51.106;7.164;2022-12-29T16:27:50;12.90;1.00
21193;DHT22;10754;51.106;7.164;2022-12-29T16:30:23;12.90;1.00
21193;DHT22;10754;51.106;7.164;2022-12-29T16:32:51;12.90;1.00
21193;DHT22;10754;51.106;7.164;2022-12-29T16:35:29;13.20;1.00
21193;DHT22;10754;51.106;7.164;2022-12-29T16:38:20;13.00;1.00
21193;DHT22;10754;51.106;7.164;2022-12-29T16:48:47;13.00;1.00
21193;DHT22;10754;51.106;7.164;2022-12-29T16:51:18;12.90;1.00
21193;DHT22;10754;51.106;7.164;2022-12-29T16:53:50;12.90;1.00
21193;DHT22;10754;51.106;7.164;2022-12-29T16:56:20;12.70;1.00
21193;DHT22;10754;51.106;7.164;2022-12-29T16:58:48;12.80;1.00
21193;DHT22;10754;51.106;7.164;2022-12-29T17:01:14;12.70;1.00
21193;DHT22;10754;51.106;7.164;2022-12-29T17:03:50;12.80;1.00
21193;DHT22;10754;51.106;7.164;2022-12-29T17:06:21;13.10;1.00
21193;DHT22;10754;51.106;7.164;2022-12-29T17:08:48;12.90;1.00
21193;DHT22;10754;51.106;7.164;2022-12-29T17:11:22;13.00;1.00
21193;DHT22;10754;51.106;7.164;2022-12-29T17:14:32;12.90;1.00
21193;DHT22;10754;51.106;7.164;2022-12-29T17:16:59;12.90;1.00
21193;DHT22;10754;51.106;7.164;2022-12-29T17:19:30;12.70;1.00
21193;DHT22;10754;51.106;7.164;2022-12-29T17:21:56;12.90;1.00
21193;DHT22;10754;51.106;7.164;2022-12-29T17:24:21;12.80;1.00
21193;DHT22;10754;51.106;7.164;2022-12-29T17:26:52;13.10;1.00
21193;DHT22;10754;51.106;7.164;2022-12-29T17:29:26;12.90;1.00
21193;DHT22;10754;51.106;7.164;2022-12-29T17:31:54;13.10;1.00
21193;DHT22;10754;51.106;7.164;2022-12-29T17:34:19;13.40;1.00
21193;DHT22;10754;51.106;7.164;2022-12-29T17:36:45;12.90;1.00
21193;DHT22;10754;51.106;7.164;2022-12-29T17:39:11;12.80;1.00
21193;DHT22;10754;51.106;7.164;2022-12-29T17:41:36;12.80;1.00
21193;DHT22;10754;51.106;7.164;2022-12-29T17:44:03;13.00;1.00
21193;DHT22;10754;51.106;7.164;2022-12-29T17:46:29;13.10;1.00
21193;DHT22;10754;51.106;7.164;2022-12-29T17:48:54;12.80;1.00
21193;DHT22;10754;51.106;7.164;2022-12-29T17:51:20;12.70;1.00